createdAt,value
2019-05-17T00:02:32.004Z,62.33
2019-05-17T00:07:37.624Z,65.23
2019-05-17T00:12:42.874Z,64.60
2019-05-17T00:17:48.075Z,63.77
2019-05-17T00:22:53.422Z,59.73
2019-05-17T00:27:58.902Z,57.80
2019-05-17T00:33:04.170Z,58.93
2019-05-17T00:38:09.404Z,53.00
2019-05-17T00:43:16.736Z,57.00
2019-05-17T00:48:21.779Z,59.57
2019-05-17T00:53:27.043Z,57.00
2019-05-17T00:58:32.372Z,54.10
2019-05-17T01:03:37.714Z,57.13
2019-05-17T01:08:43.615Z,59.73
2019-05-17T01:13:49.256Z,56.93
2019-05-17T01:18:57.198Z,54.10
2019-05-17T01:24:02.146Z,53.70
2019-05-17T01:29:07.499Z,53.80
2019-05-17T01:34:12.802Z,57.13
2019-05-17T01:39:21.314Z,57.93
2019-05-17T01:44:27.197Z,54.40
2019-05-17T01:49:32.622Z,55.97
2019-05-17T01:54:37.593Z,56.63
2019-05-17T01:59:43.448Z,55.70
2019-05-17T02:04:50.436Z,57.20
2019-05-17T02:09:56.868Z,59.27
2019-05-17T02:15:02.419Z,59.87
2019-05-17T02:20:09.585Z,60.83
2019-05-17T02:25:16.743Z,62.57
2019-05-17T02:30:23.319Z,63.37
2019-05-17T02:35:29.132Z,61.70
2019-05-17T02:40:34.461Z,64.73
2019-05-17T02:45:43.284Z,63.53
2019-05-17T02:50:48.277Z,60.57
2019-05-17T02:55:54.152Z,60.60
2019-05-17T03:00:59.585Z,61.27
2019-05-17T03:06:05.251Z,62.00
2019-05-17T03:11:13.204Z,61.53
2019-05-17T03:16:17.911Z,60.67
2019-05-17T03:21:23.469Z,62.40
2019-05-17T03:26:28.889Z,62.60
2019-05-17T03:31:42.018Z,62.47
2019-05-17T03:36:46.189Z,62.53
2019-05-17T03:41:48.067Z,59.23
2019-05-17T03:46:53.362Z,62.03
2019-05-17T03:52:02.462Z,63.67
2019-05-17T03:57:06.161Z,63.43
2019-05-17T04:02:12.419Z,63.40
2019-05-17T04:07:17.993Z,62.47
2019-05-17T04:12:23.562Z,62.93
2019-05-17T04:17:29.081Z,63.57
2019-05-17T04:22:34.742Z,64.40
2019-05-17T04:27:43.222Z,65.37
2019-05-17T04:32:48.437Z,60.07
2019-05-17T04:37:53.854Z,61.53
2019-05-17T04:42:59.013Z,59.70
2019-05-17T04:48:04.554Z,58.67
2019-05-17T04:53:12.915Z,64.63
2019-05-17T04:58:16.886Z,62.63
2019-05-17T05:03:23.175Z,64.30
2019-05-17T05:08:29.202Z,60.20
2019-05-17T05:13:35.237Z,59.37
2019-05-17T05:18:42.119Z,63.60
2019-05-17T05:23:47.758Z,64.23
2019-05-17T05:28:53.334Z,58.07
2019-05-17T05:33:58.700Z,57.70
2019-05-17T05:39:04.833Z,58.37
2019-05-17T05:44:12.095Z,58.47
2019-05-17T05:49:17.229Z,56.43
2019-05-17T05:54:22.692Z,56.27
2019-05-17T05:59:31.564Z,57.63
2019-05-17T06:04:36.265Z,54.33
2019-05-17T06:09:42.342Z,46.93
2019-05-17T06:14:47.972Z,55.67
2019-05-17T06:19:53.979Z,47.47
2019-05-17T06:24:59.476Z,51.53
2019-05-17T06:30:05.651Z,50.13
2019-05-17T06:35:12.607Z,46.13
2019-05-17T06:40:18.578Z,49.07
2019-05-17T06:45:24.248Z,46.03
2019-05-17T06:50:29.807Z,41.50
2019-05-17T06:55:35.059Z,41.10
2019-05-17T07:00:40.413Z,47.47
2019-05-17T07:05:47.440Z,43.13
2019-05-17T07:10:52.479Z,39.43
2019-05-17T07:15:59.532Z,40.27
2019-05-17T07:21:04.710Z,37.40
2019-05-17T07:26:12.053Z,33.43
2019-05-17T07:31:16.577Z,37.70
2019-05-17T07:36:21.775Z,36.37
2019-05-17T07:41:27.165Z,37.00
2019-05-17T07:46:32.383Z,36.80
2019-05-17T07:51:39.609Z,37.97
2019-05-17T07:56:44.593Z,39.00
2019-05-17T08:01:50.303Z,42.10
2019-05-17T08:06:55.767Z,35.63
2019-05-17T08:12:01.096Z,38.93
2019-05-17T08:17:06.036Z,36.60
2019-05-17T08:22:11.206Z,38.17
2019-05-17T08:27:16.366Z,36.33
2019-05-17T08:32:21.468Z,30.40
2019-05-17T08:37:26.803Z,35.83
2019-05-17T08:42:32.068Z,30.03
2019-05-17T08:47:39.398Z,32.20
2019-05-17T08:52:44.309Z,30.67
2019-05-17T08:57:50.058Z,28.60
2019-05-17T09:02:55.479Z,23.03
2019-05-17T09:08:00.468Z,21.33
2019-05-17T09:13:05.407Z,28.17
2019-05-17T09:18:10.605Z,25.97
2019-05-17T09:23:15.797Z,30.90
2019-05-17T09:28:21.133Z,29.73
2019-05-17T09:33:26.369Z,28.17
2019-05-17T09:38:31.659Z,26.53
2019-05-17T09:43:36.595Z,20.00
2019-05-17T09:48:41.587Z,23.47
2019-05-17T09:53:46.740Z,19.83
2019-05-17T09:58:51.976Z,24.40
2019-05-17T10:03:59.443Z,20.63
2019-05-17T10:09:04.266Z,22.67
2019-05-17T10:14:11.515Z,25.57
2019-05-17T10:19:16.177Z,21.77
2019-05-17T10:24:34.866Z,24.73
2019-05-17T10:29:29.864Z,22.03
2019-05-17T10:34:54.071Z,22.47
2019-05-17T10:39:59.499Z,22.43
2019-05-17T10:45:10.576Z,22.93
2019-05-17T10:50:15.139Z,22.97
2019-05-17T10:55:20.346Z,23.43
2019-05-17T11:00:25.998Z,25.83
2019-05-17T11:05:31.182Z,24.70
2019-05-17T11:10:36.117Z,25.10
2019-05-17T11:15:41.298Z,24.07
2019-05-17T11:20:46.802Z,25.20
2019-05-17T11:25:52.151Z,25.30
2019-05-17T11:30:57.458Z,25.10
2019-05-17T11:36:02.786Z,21.93
2019-05-17T11:41:20.389Z,20.07
2019-05-17T11:46:14.532Z,20.70
2019-05-17T11:51:19.416Z,20.07
2019-05-17T11:56:24.588Z,22.77
2019-05-17T12:01:29.521Z,20.40
2019-05-17T12:06:34.943Z,20.03
2019-05-17T12:11:39.995Z,18.67
2019-05-17T12:16:45.161Z,16.43
2019-05-17T12:21:50.361Z,18.97
2019-05-17T12:26:55.317Z,19.57
2019-05-17T12:32:00.203Z,20.17
2019-05-17T12:37:06.124Z,21.27
2019-05-17T12:42:11.463Z,22.73
2019-05-17T12:47:16.899Z,23.07
2019-05-17T12:52:22.026Z,24.17
2019-05-17T12:57:27.351Z,22.03
2019-05-17T13:02:32.770Z,21.67
2019-05-17T13:07:40.451Z,21.27
2019-05-17T13:12:44.684Z,21.70
2019-05-17T13:17:49.942Z,21.83
2019-05-17T13:22:54.987Z,22.33
2019-05-17T13:28:00.105Z,20.20
2019-05-17T13:33:05.491Z,23.83
2019-05-17T13:38:10.428Z,24.53
2019-05-17T13:43:15.610Z,21.97
2019-05-17T13:48:20.726Z,24.53
2019-05-17T13:53:26.333Z,25.57
2019-05-17T13:58:31.324Z,21.40
2019-05-17T14:03:36.914Z,26.07
2019-05-17T14:08:42.062Z,27.40
2019-05-17T14:13:47.435Z,24.00
2019-05-17T14:18:52.778Z,26.90
2019-05-17T14:23:57.937Z,24.70
2019-05-17T14:29:03.103Z,28.97
2019-05-17T14:34:08.197Z,24.90
2019-05-17T14:39:14.039Z,28.53
2019-05-17T14:44:19.257Z,25.53
2019-05-17T14:49:24.237Z,27.17
2019-05-17T14:54:29.519Z,22.97
2019-05-17T14:59:34.760Z,23.57
2019-05-17T15:04:39.980Z,28.93
2019-05-17T15:09:45.171Z,27.47
2019-05-17T15:14:50.385Z,25.57
2019-05-17T15:19:55.652Z,26.80
2019-05-17T15:25:01.045Z,30.13
2019-05-17T15:30:07.330Z,29.50
2019-05-17T15:35:12.841Z,26.83
2019-05-17T15:40:18.740Z,30.83
2019-05-17T15:45:23.995Z,30.23
2019-05-17T15:50:29.594Z,29.63
2019-05-17T15:55:34.886Z,24.23
2019-05-17T16:00:39.920Z,32.07
2019-05-17T16:05:45.015Z,28.63
2019-05-17T16:10:49.976Z,26.77
2019-05-17T16:15:54.998Z,23.77
2019-05-17T16:21:00.281Z,22.40
2019-05-17T16:26:05.955Z,21.57
2019-05-17T16:31:11.216Z,21.20
2019-05-17T16:36:16.606Z,23.47
2019-05-17T16:41:22.117Z,23.33
2019-05-17T16:46:27.359Z,23.70
2019-05-17T16:51:32.768Z,24.63
2019-05-17T16:56:38.260Z,25.00
2019-05-17T17:01:43.686Z,22.57
2019-05-17T17:06:49.036Z,26.20
2019-05-17T17:11:54.344Z,30.37
2019-05-17T17:16:59.479Z,31.50
2019-05-17T17:22:04.399Z,35.00
2019-05-17T17:27:09.661Z,32.90
2019-05-17T17:32:21.654Z,33.23
2019-05-17T17:37:21.772Z,36.80
2019-05-17T17:42:26.968Z,33.10
2019-05-17T17:47:32.140Z,40.23
2019-05-17T17:52:38.560Z,34.87
2019-05-17T17:57:44.145Z,50.37
2019-05-17T18:02:49.633Z,49.47
2019-05-17T18:07:54.969Z,41.93
2019-05-17T18:13:00.599Z,42.03
2019-05-17T18:18:05.786Z,41.90
2019-05-17T18:23:11.470Z,41.63
2019-05-17T18:28:17.002Z,40.90
2019-05-17T18:33:22.340Z,40.37
2019-05-17T18:38:30.144Z,31.53
2019-05-17T18:43:35.382Z,50.03
2019-05-17T18:48:40.443Z,49.97
2019-05-17T18:53:46.123Z,51.03
2019-05-17T18:58:51.458Z,48.67
2019-05-17T19:03:56.812Z,46.93
2019-05-17T19:09:01.994Z,48.47
2019-05-17T19:14:07.500Z,57.07
2019-05-17T19:19:13.429Z,46.00
2019-05-17T19:24:19.113Z,36.47
2019-05-17T19:29:24.426Z,35.70
2019-05-17T19:34:29.419Z,38.63
2019-05-17T19:39:34.464Z,42.07
2019-05-17T19:44:39.794Z,37.97
2019-05-17T19:49:45.170Z,35.27
2019-05-17T19:54:50.442Z,40.83
2019-05-17T19:59:55.670Z,34.27
2019-05-17T20:05:01.040Z,61.50
2019-05-17T20:10:10.254Z,57.87
2019-05-17T20:15:17.749Z,56.63
2019-05-17T20:20:22.722Z,66.53
2019-05-17T20:25:27.922Z,82.47
2019-05-17T20:30:33.212Z,50.93
2019-05-17T20:35:38.250Z,47.87
2019-05-17T20:40:44.158Z,43.57
2019-05-17T20:45:49.090Z,42.10
2019-05-17T20:50:54.388Z,44.47
2019-05-17T20:55:59.627Z,46.87
2019-05-17T21:01:04.689Z,45.13
2019-05-17T21:06:09.961Z,42.47
2019-05-17T21:11:15.203Z,37.63
2019-05-17T21:16:20.535Z,39.97
2019-05-17T21:21:25.868Z,36.80
2019-05-17T21:26:31.031Z,33.60
2019-05-17T21:31:36.303Z,34.40
2019-05-17T21:36:41.567Z,35.37
2019-05-17T21:42:06.197Z,39.50
2019-05-17T21:47:11.146Z,38.70
2019-05-17T21:52:16.610Z,42.83
2019-05-17T21:57:21.586Z,44.57
2019-05-17T22:02:26.991Z,43.47
2019-05-17T22:07:31.950Z,43.47
2019-05-17T22:12:37.113Z,43.60
2019-05-17T22:17:42.528Z,48.70
2019-05-17T22:22:47.941Z,53.63
2019-05-17T22:27:52.958Z,49.17
2019-05-17T22:32:58.189Z,55.60
2019-05-17T22:38:03.499Z,54.90
2019-05-17T22:43:09.729Z,48.47
2019-05-17T22:48:14.732Z,54.10
2019-05-17T22:53:19.888Z,51.13
2019-05-17T22:58:25.247Z,55.50
2019-05-17T23:03:30.708Z,56.30
2019-05-17T23:08:35.835Z,54.33
2019-05-17T23:13:42.658Z,56.00
2019-05-17T23:19:05.631Z,55.67
2019-05-17T23:24:11.013Z,50.97
2019-05-17T23:29:16.521Z,48.80
2019-05-17T23:34:21.727Z,47.27
2019-05-17T23:39:27.075Z,46.50
2019-05-17T23:44:32.361Z,46.07
2019-05-17T23:49:37.678Z,48.40
2019-05-17T23:54:42.895Z,44.13
2019-05-17T23:59:48.200Z,48.40
